createdAt,value
2018-09-07T00:00:31.939Z,94.62
2018-09-07T00:03:04.079Z,93.39
2018-09-07T00:05:36.208Z,93.62
2018-09-07T00:08:08.336Z,93.54
2018-09-07T00:10:40.407Z,93.81
2018-09-07T00:13:12.565Z,94.88
2018-09-07T00:15:44.674Z,94.71
2018-09-07T00:18:17.427Z,94.85
2018-09-07T00:20:49.519Z,93.46
2018-09-07T00:23:21.688Z,93.97
2018-09-07T00:25:53.865Z,93.98
2018-09-07T00:28:26.081Z,93.84
2018-09-07T00:30:58.248Z,94.84
2018-09-07T00:33:30.395Z,94.76
2018-09-07T00:36:02.506Z,94.62
2018-09-07T00:38:34.588Z,94.80
2018-09-07T00:43:56.728Z,94.72
2018-09-07T00:46:28.947Z,94.56
2018-09-07T00:49:01.121Z,93.91
2018-09-07T00:51:33.254Z,94.48
2018-09-07T00:54:05.493Z,94.47
2018-09-07T00:56:37.583Z,94.66
2018-09-07T00:59:09.673Z,95.25
2018-09-07T01:01:41.786Z,95.54
2018-09-07T01:04:13.877Z,94.79
2018-09-07T01:06:45.959Z,95.36
2018-09-07T01:09:18.126Z,95.09
2018-09-07T01:11:50.292Z,95.56
2018-09-07T01:14:22.634Z,95.42
2018-09-07T01:16:54.765Z,96.37
2018-09-07T01:19:26.868Z,96.87
2018-09-07T01:21:59.024Z,96.18
2018-09-07T01:24:31.135Z,96.48
2018-09-07T01:27:03.258Z,96.28
2018-09-07T01:29:35.432Z,96.30
2018-09-07T01:32:07.585Z,96.28
2018-09-07T01:34:44.293Z,95.95
2018-09-07T01:37:22.048Z,96.28
2018-09-07T01:39:54.391Z,96.94
2018-09-07T01:42:26.549Z,96.34
2018-09-07T01:44:58.697Z,96.54
2018-09-07T01:47:30.791Z,96.58
2018-09-07T01:50:02.935Z,96.25
2018-09-07T01:52:35.377Z,97.03
2018-09-07T01:55:07.536Z,97.42
2018-09-07T01:57:39.670Z,96.80
2018-09-07T02:00:11.826Z,95.95
2018-09-07T02:02:49.683Z,96.15
2018-09-07T02:05:21.811Z,95.16
2018-09-07T02:07:53.912Z,95.58
2018-09-07T02:10:26.125Z,95.94
2018-09-07T02:12:58.176Z,96.21
2018-09-07T02:15:30.244Z,96.51
2018-09-07T02:18:02.791Z,96.16
2018-09-07T02:20:34.864Z,96.83
2018-09-07T02:23:07.019Z,96.90
2018-09-07T02:25:39.179Z,97.07
2018-09-07T02:28:11.313Z,96.88
2018-09-07T02:30:43.446Z,96.71
2018-09-07T02:33:15.527Z,96.91
2018-09-07T02:35:47.722Z,96.91
2018-09-07T02:38:19.874Z,97.58
2018-09-07T02:40:51.940Z,97.43
2018-09-07T02:43:24.047Z,97.37
2018-09-07T02:45:56.167Z,97.06
2018-09-07T02:48:28.243Z,97.19
2018-09-07T02:51:00.341Z,97.38
2018-09-07T02:53:32.404Z,97.50
2018-09-07T02:56:04.700Z,97.01
2018-09-07T02:58:36.766Z,96.66
2018-09-07T03:01:09.076Z,96.67
2018-09-07T03:03:41.160Z,96.87
2018-09-07T03:06:13.257Z,97.63
2018-09-07T03:08:45.321Z,98.65
2018-09-07T03:11:17.399Z,99.74
2018-09-07T03:13:49.490Z,100.00
2018-09-07T03:16:21.672Z,100.00
2018-09-07T03:21:25.780Z,100.00
2018-09-07T03:23:58.018Z,100.00
2018-09-07T03:26:30.213Z,100.00
2018-09-07T03:29:02.349Z,100.00
2018-09-07T03:31:34.484Z,100.00
2018-09-07T03:34:06.571Z,100.00
2018-09-07T03:36:38.718Z,100.00
2018-09-07T03:39:10.856Z,100.00
2018-09-07T03:41:42.920Z,100.00
2018-09-07T03:44:14.993Z,100.00
2018-09-07T03:46:47.157Z,100.00
2018-09-07T03:49:19.271Z,100.00
2018-09-07T03:51:51.386Z,100.00
2018-09-07T03:54:23.518Z,100.00
2018-09-07T03:56:55.763Z,100.00
2018-09-07T03:59:27.903Z,100.00
2018-09-07T04:02:00.018Z,100.00
2018-09-07T04:04:32.139Z,100.00
2018-09-07T04:07:04.500Z,100.00
2018-09-07T04:09:36.629Z,100.00
2018-09-07T04:12:08.793Z,100.00
2018-09-07T04:14:40.955Z,100.00
2018-09-07T04:17:13.057Z,100.00
2018-09-07T04:19:45.105Z,100.00
2018-09-07T04:22:17.203Z,100.00
2018-09-07T04:24:49.281Z,100.00
2018-09-07T04:27:21.378Z,100.00
2018-09-07T04:29:53.463Z,100.00
2018-09-07T04:32:25.570Z,100.00
2018-09-07T04:34:57.627Z,100.00
2018-09-07T04:37:29.763Z,100.00
2018-09-07T04:40:01.941Z,100.00
2018-09-07T04:42:34.047Z,100.00
2018-09-07T04:45:06.734Z,100.00
2018-09-07T04:47:39.176Z,100.00
2018-09-07T04:50:12.959Z,100.00
2018-09-07T04:52:45.213Z,100.00
2018-09-07T04:55:18.514Z,100.00
2018-09-07T04:57:50.737Z,100.00
2018-09-07T05:00:22.954Z,100.00
2018-09-07T05:02:55.075Z,100.00
2018-09-07T05:05:27.196Z,100.00
2018-09-07T05:08:01.352Z,100.00
2018-09-07T05:10:33.455Z,100.00
2018-09-07T05:13:05.639Z,100.00
2018-09-07T05:15:37.891Z,100.00
2018-09-07T05:18:09.996Z,100.00
2018-09-07T05:20:42.189Z,100.00
2018-09-07T05:23:14.286Z,100.00
2018-09-07T05:25:46.386Z,100.00
2018-09-07T05:28:18.500Z,100.00
2018-09-07T05:30:50.642Z,100.00
2018-09-07T05:33:22.793Z,100.00
2018-09-07T05:35:54.944Z,100.00
2018-09-07T05:38:27.116Z,100.00
2018-09-07T05:40:59.307Z,100.00
2018-09-07T05:43:35.779Z,100.00
2018-09-07T05:46:07.970Z,100.00
2018-09-07T05:48:40.120Z,100.00
2018-09-07T05:51:12.299Z,100.00
2018-09-07T05:53:44.473Z,100.00
2018-09-07T05:56:16.625Z,100.00
2018-09-07T05:58:48.705Z,100.00
2018-09-07T06:01:20.816Z,100.00
2018-09-07T06:03:52.917Z,100.00
2018-09-07T06:06:25.050Z,100.00
2018-09-07T06:08:57.177Z,100.00
2018-09-07T06:11:29.306Z,100.00
2018-09-07T06:14:01.396Z,100.00
2018-09-07T06:16:33.707Z,100.00
2018-09-07T06:19:05.814Z,100.00
2018-09-07T06:21:37.896Z,100.00
2018-09-07T06:24:10.119Z,100.00
2018-09-07T06:26:42.207Z,100.00
2018-09-07T06:29:14.318Z,100.00
2018-09-07T06:31:46.512Z,100.00
2018-09-07T06:34:18.651Z,100.00
2018-09-07T06:36:50.728Z,100.00
2018-09-07T06:39:22.887Z,100.00
2018-09-07T06:41:55.091Z,100.00
2018-09-07T06:44:27.223Z,99.12
2018-09-07T06:46:59.510Z,98.44
2018-09-07T06:49:31.518Z,97.84
2018-09-07T06:52:03.673Z,96.28
2018-09-07T06:54:35.798Z,94.33
2018-09-07T06:57:07.896Z,91.52
2018-09-07T06:59:39.992Z,88.53
2018-09-07T07:02:12.119Z,87.00
2018-09-07T07:04:44.209Z,83.30
2018-09-07T07:07:16.301Z,80.60
2018-09-07T07:09:48.374Z,78.83
2018-09-07T07:12:20.488Z,79.79
2018-09-07T07:14:52.562Z,79.56
2018-09-07T07:17:24.726Z,79.53
2018-09-07T07:19:56.853Z,79.15
2018-09-07T07:22:28.983Z,76.29
2018-09-07T07:25:01.145Z,75.24
2018-09-07T07:27:33.278Z,74.36
2018-09-07T07:30:05.363Z,73.13
2018-09-07T07:32:38.467Z,76.62
2018-09-07T07:35:12.803Z,78.46
2018-09-07T07:37:45.030Z,78.75
2018-09-07T07:40:17.142Z,77.95
2018-09-07T07:42:49.228Z,76.47
2018-09-07T07:45:21.324Z,75.72
2018-09-07T07:47:53.539Z,77.95
2018-09-07T07:50:25.618Z,77.78
2018-09-07T07:52:57.769Z,78.67
2018-09-07T07:55:29.936Z,79.81
2018-09-07T07:58:02.070Z,78.41
2018-09-07T08:00:34.156Z,79.95
2018-09-07T08:03:06.334Z,75.07
2018-09-07T08:05:38.409Z,65.57
2018-09-07T08:08:10.575Z,60.61
2018-09-07T08:10:42.683Z,58.97
2018-09-07T08:13:14.795Z,61.03
2018-09-07T08:15:46.885Z,64.03
2018-09-07T08:18:19.004Z,60.93
2018-09-07T08:20:51.129Z,57.66
2018-09-07T08:23:23.213Z,59.46
2018-09-07T08:25:55.294Z,61.87
2018-09-07T08:28:27.352Z,57.90
2018-09-07T08:30:59.493Z,57.19
2018-09-07T08:33:31.684Z,58.10
2018-09-07T08:36:03.962Z,60.90
2018-09-07T08:38:36.220Z,60.94
2018-09-07T08:41:08.533Z,61.71
2018-09-07T08:43:40.724Z,62.24
2018-09-07T08:46:12.886Z,62.50
2018-09-07T08:48:45.125Z,64.37
2018-09-07T08:51:17.159Z,64.84
2018-09-07T08:53:50.425Z,64.06
2018-09-07T08:56:22.583Z,62.25
2018-09-07T08:58:54.826Z,63.60
2018-09-07T09:01:27.023Z,65.95
2018-09-07T09:03:59.126Z,65.29
2018-09-07T09:06:31.249Z,67.42
2018-09-07T09:09:04.805Z,66.82
2018-09-07T09:11:36.912Z,67.25
2018-09-07T09:14:09.090Z,68.97
2018-09-07T09:16:41.381Z,68.65
2018-09-07T09:19:13.546Z,66.59
2018-09-07T09:21:45.680Z,66.14
2018-09-07T09:24:17.783Z,64.66
2018-09-07T09:26:49.945Z,64.78
2018-09-07T09:29:22.622Z,62.83
2018-09-07T09:31:54.823Z,62.25
2018-09-07T09:34:26.938Z,62.69
2018-09-07T09:36:59.167Z,58.66
2018-09-07T09:39:33.308Z,58.24
2018-09-07T09:42:05.455Z,54.08
2018-09-07T09:44:37.573Z,55.16
2018-09-07T09:47:09.907Z,54.75
2018-09-07T09:49:42.193Z,55.81
2018-09-07T09:52:14.365Z,54.60
2018-09-07T09:54:46.474Z,56.32
2018-09-07T09:57:18.812Z,57.58
2018-09-07T09:59:51.296Z,54.02
2018-09-07T10:02:30.104Z,53.91
2018-09-07T10:05:02.434Z,56.11
2018-09-07T10:07:34.690Z,57.17
2018-09-07T10:10:06.902Z,57.87
2018-09-07T10:12:39.086Z,57.87
2018-09-07T10:15:11.262Z,60.49
2018-09-07T10:17:43.420Z,58.46
2018-09-07T10:20:15.562Z,59.20
2018-09-07T10:22:47.682Z,60.01
2018-09-07T10:25:19.809Z,59.60
2018-09-07T10:27:51.921Z,58.90
2018-09-07T10:30:24.044Z,58.06
2018-09-07T10:32:56.192Z,57.89
2018-09-07T10:35:28.373Z,55.50
2018-09-07T10:38:00.435Z,55.40
2018-09-07T10:40:32.555Z,53.07
2018-09-07T10:43:04.943Z,55.02
2018-09-07T10:45:37.116Z,56.02
2018-09-07T10:48:09.200Z,55.29
2018-09-07T10:50:41.369Z,58.10
2018-09-07T10:53:13.497Z,57.34
2018-09-07T10:55:46.560Z,59.23
2018-09-07T10:58:18.628Z,60.98
2018-09-07T11:00:50.761Z,58.93
2018-09-07T11:03:22.927Z,55.85
2018-09-07T11:05:55.068Z,54.07
2018-09-07T11:08:27.168Z,51.16
2018-09-07T11:10:59.307Z,53.51
2018-09-07T11:13:31.476Z,54.57
2018-09-07T11:16:03.563Z,54.96
2018-09-07T11:18:35.665Z,56.12
2018-09-07T11:21:07.809Z,57.34
2018-09-07T11:23:39.919Z,58.61
2018-09-07T11:26:12.030Z,57.46
2018-09-07T11:28:44.063Z,57.76
2018-09-07T11:31:16.207Z,57.36
2018-09-07T11:33:48.303Z,55.62
2018-09-07T11:36:20.433Z,55.94
2018-09-07T11:38:52.538Z,56.06
2018-09-07T11:41:25.058Z,54.98
2018-09-07T11:43:57.199Z,56.55
2018-09-07T11:46:29.331Z,55.33
2018-09-07T11:49:02.130Z,55.13
2018-09-07T11:51:34.315Z,51.41
2018-09-07T11:54:06.849Z,51.75
2018-09-07T11:56:38.964Z,51.67
2018-09-07T11:59:11.111Z,50.46
2018-09-07T12:01:43.189Z,52.20
2018-09-07T12:04:15.476Z,51.00
2018-09-07T12:06:48.489Z,50.77
2018-09-07T12:09:20.542Z,51.91
2018-09-07T12:11:52.666Z,50.85
2018-09-07T12:14:24.775Z,49.59
2018-09-07T12:16:57.224Z,51.00
2018-09-07T12:19:29.293Z,52.11
2018-09-07T12:22:01.475Z,51.14
2018-09-07T12:24:33.580Z,54.05
2018-09-07T12:27:05.647Z,52.99
2018-09-07T12:29:37.764Z,52.32
2018-09-07T12:32:10.598Z,52.38
2018-09-07T12:34:42.828Z,52.12
2018-09-07T12:37:15.291Z,51.32
2018-09-07T12:39:47.377Z,53.17
2018-09-07T12:42:20.127Z,52.42
2018-09-07T12:44:53.336Z,52.03
2018-09-07T12:47:25.559Z,51.71
2018-09-07T12:49:57.714Z,53.73
2018-09-07T12:52:29.935Z,54.32
2018-09-07T12:55:03.448Z,55.51
2018-09-07T12:57:37.351Z,56.47
2018-09-07T13:00:09.409Z,62.18
2018-09-07T13:02:41.594Z,60.85
2018-09-07T13:05:13.903Z,60.50
2018-09-07T13:07:47.829Z,59.48
2018-09-07T13:10:20.100Z,56.92
2018-09-07T13:12:52.268Z,55.57
2018-09-07T13:15:24.453Z,54.73
2018-09-07T13:17:56.600Z,55.30
2018-09-07T13:20:29.732Z,55.26
2018-09-07T13:23:02.081Z,54.12
2018-09-07T13:25:34.354Z,54.29
2018-09-07T13:28:06.631Z,54.71
2018-09-07T13:30:38.602Z,56.50
2018-09-07T13:33:10.749Z,58.12
2018-09-07T13:35:43.051Z,58.46
2018-09-07T13:38:15.148Z,59.79
2018-09-07T13:40:47.260Z,60.25
2018-09-07T13:43:19.348Z,58.98
2018-09-07T13:45:51.401Z,60.33
2018-09-07T13:48:23.513Z,62.32
2018-09-07T13:50:56.577Z,63.59
2018-09-07T13:53:28.687Z,63.59
2018-09-07T13:56:00.750Z,65.78
2018-09-07T13:58:32.808Z,67.23
2018-09-07T14:01:04.934Z,67.31
2018-09-07T14:03:36.996Z,69.58
2018-09-07T14:06:09.099Z,69.25
2018-09-07T14:08:41.178Z,68.48
2018-09-07T14:11:13.266Z,68.64
2018-09-07T14:13:45.492Z,71.19
2018-09-07T14:16:17.662Z,70.17
2018-09-07T14:18:49.800Z,69.00
2018-09-07T14:21:21.896Z,68.77
2018-09-07T14:23:54.027Z,67.75
2018-09-07T14:26:26.169Z,67.01
2018-09-07T14:28:58.260Z,64.28
2018-09-07T14:31:30.401Z,62.96
2018-09-07T14:34:02.534Z,63.12
2018-09-07T14:36:34.672Z,63.84
2018-09-07T14:39:07.010Z,62.73
2018-09-07T14:41:39.151Z,62.57
2018-09-07T14:44:11.325Z,62.48
2018-09-07T14:46:43.425Z,60.93
2018-09-07T14:49:15.744Z,60.01
2018-09-07T14:51:47.822Z,60.89
2018-09-07T14:54:19.956Z,60.70
2018-09-07T14:56:52.057Z,60.28
2018-09-07T14:59:24.560Z,61.45
2018-09-07T15:01:56.802Z,60.77
2018-09-07T15:04:28.969Z,61.07
2018-09-07T15:07:01.087Z,61.34
2018-09-07T15:09:33.233Z,59.72
2018-09-07T15:12:05.304Z,61.83
2018-09-07T15:14:37.423Z,62.09
2018-09-07T15:17:09.579Z,62.00
2018-09-07T15:19:41.668Z,59.39
2018-09-07T15:22:13.799Z,53.97
2018-09-07T15:24:45.970Z,52.35
2018-09-07T15:27:18.094Z,48.45
2018-09-07T15:29:50.279Z,47.48
2018-09-07T15:32:22.324Z,46.37
2018-09-07T15:34:54.506Z,48.99
2018-09-07T15:37:26.623Z,51.57
2018-09-07T15:39:58.722Z,51.08
2018-09-07T15:42:30.878Z,52.38
2018-09-07T15:45:03.028Z,53.67
2018-09-07T15:47:35.199Z,55.52
2018-09-07T15:50:08.277Z,55.10
2018-09-07T15:52:40.423Z,55.24
2018-09-07T15:55:12.481Z,56.86
2018-09-07T15:57:44.541Z,57.01
2018-09-07T16:00:16.721Z,58.77
2018-09-07T16:02:48.822Z,60.11
2018-09-07T16:05:20.945Z,60.21
2018-09-07T16:07:53.043Z,60.51
2018-09-07T16:10:25.141Z,61.93
2018-09-07T16:12:57.273Z,61.14
2018-09-07T16:15:29.406Z,61.78
2018-09-07T16:18:01.467Z,61.63
2018-09-07T16:20:33.525Z,60.88
2018-09-07T16:23:05.845Z,61.25
2018-09-07T16:25:38.021Z,60.12
2018-09-07T16:28:10.095Z,61.90
2018-09-07T16:30:42.175Z,61.07
2018-09-07T16:33:14.266Z,57.98
2018-09-07T16:35:46.667Z,58.50
2018-09-07T16:38:18.756Z,59.13
2018-09-07T16:40:50.855Z,61.57
2018-09-07T16:43:22.976Z,59.60
2018-09-07T16:45:55.119Z,60.56
2018-09-07T16:48:28.197Z,61.20
2018-09-07T16:51:01.283Z,61.47
2018-09-07T16:53:33.337Z,61.97
2018-09-07T16:56:05.702Z,62.78
2018-09-07T16:58:37.865Z,63.37
2018-09-07T17:01:09.941Z,64.81
2018-09-07T17:03:43.007Z,65.81
2018-09-07T17:06:15.087Z,65.68
2018-09-07T17:08:47.342Z,66.88
2018-09-07T17:11:19.452Z,67.30
2018-09-07T17:13:51.529Z,68.31
2018-09-07T17:16:23.628Z,69.29
2018-09-07T17:18:55.766Z,69.00
2018-09-07T17:21:27.856Z,67.66
2018-09-07T17:23:59.907Z,69.60
2018-09-07T17:26:31.996Z,71.54
2018-09-07T17:29:04.064Z,72.36
2018-09-07T17:31:36.168Z,71.64
2018-09-07T17:34:08.280Z,71.98
2018-09-07T17:36:40.400Z,73.36
2018-09-07T17:39:12.551Z,74.45
2018-09-07T17:41:44.645Z,74.22
2018-09-07T17:44:16.783Z,75.95
2018-09-07T17:46:48.965Z,76.27
2018-09-07T17:49:21.024Z,77.55
2018-09-07T17:51:53.112Z,77.53
2018-09-07T17:54:25.174Z,78.13
2018-09-07T17:56:57.291Z,79.03
2018-09-07T17:59:29.364Z,78.76
2018-09-07T18:02:01.480Z,79.31
2018-09-07T18:04:33.591Z,79.83
2018-09-07T18:07:06.781Z,81.37
2018-09-07T18:09:38.822Z,82.27
2018-09-07T18:12:10.937Z,82.76
2018-09-07T18:14:43.001Z,83.09
2018-09-07T18:17:15.107Z,83.91
2018-09-07T18:19:47.143Z,84.23
2018-09-07T18:22:19.251Z,84.94
2018-09-07T18:24:51.356Z,85.60
2018-09-07T18:27:23.426Z,85.41
2018-09-07T18:29:55.478Z,84.55
2018-09-07T18:32:27.627Z,84.31
2018-09-07T18:34:59.914Z,84.24
2018-09-07T18:37:31.908Z,84.11
2018-09-07T18:40:04.064Z,83.80
2018-09-07T18:42:36.850Z,83.60
2018-09-07T18:45:09.013Z,84.20
2018-09-07T18:47:41.177Z,84.64
2018-09-07T18:50:13.353Z,84.27
2018-09-07T18:52:45.474Z,85.45
2018-09-07T18:55:17.540Z,85.55
2018-09-07T18:57:49.672Z,86.55
2018-09-07T19:00:21.792Z,86.25
2018-09-07T19:02:53.897Z,87.58
2018-09-07T19:05:26.051Z,88.24
2018-09-07T19:07:58.285Z,89.19
2018-09-07T19:10:30.440Z,89.05
2018-09-07T19:13:02.655Z,89.16
2018-09-07T19:15:34.870Z,89.99
2018-09-07T19:18:06.959Z,90.60
2018-09-07T19:20:39.053Z,91.17
2018-09-07T19:23:11.132Z,90.68
2018-09-07T19:25:43.212Z,90.17
2018-09-07T19:28:15.452Z,89.50
2018-09-07T19:30:47.789Z,89.33
2018-09-07T19:33:19.846Z,90.53
2018-09-07T19:35:51.916Z,91.31
2018-09-07T19:38:24.123Z,92.31
2018-09-07T19:40:56.312Z,93.50
2018-09-07T19:43:28.432Z,94.03
2018-09-07T19:46:00.532Z,94.88
2018-09-07T19:48:32.668Z,94.64
2018-09-07T19:51:04.790Z,94.99
2018-09-07T19:53:37.031Z,95.57
2018-09-07T19:56:09.103Z,95.48
2018-09-07T19:58:41.195Z,95.72
2018-09-07T20:01:13.489Z,96.01
2018-09-07T20:03:45.626Z,96.32
2018-09-07T20:06:17.656Z,96.04
2018-09-07T20:08:49.826Z,95.77
2018-09-07T20:11:21.908Z,96.07
2018-09-07T20:13:53.976Z,96.50
2018-09-07T20:16:26.105Z,96.14
2018-09-07T20:18:58.328Z,95.28
2018-09-07T20:21:30.378Z,93.84
2018-09-07T20:24:02.509Z,94.20
2018-09-07T20:26:34.697Z,94.77
2018-09-07T20:29:06.862Z,95.81
2018-09-07T20:31:39.397Z,95.28
2018-09-07T20:34:11.503Z,94.35
2018-09-07T20:36:43.570Z,92.81
2018-09-07T20:39:15.634Z,92.14
2018-09-07T20:41:47.719Z,92.08
2018-09-07T20:44:19.798Z,91.74
2018-09-07T20:46:51.933Z,92.07
2018-09-07T20:49:24.032Z,91.39
2018-09-07T20:51:56.089Z,92.43
2018-09-07T20:54:28.293Z,91.53
2018-09-07T20:57:00.458Z,90.84
2018-09-07T20:59:32.528Z,91.05
2018-09-07T21:02:04.607Z,89.83
2018-09-07T21:04:36.718Z,89.27
2018-09-07T21:07:08.833Z,89.95
2018-09-07T21:09:40.980Z,89.64
2018-09-07T21:12:12.980Z,90.08
2018-09-07T21:14:45.148Z,88.76
2018-09-07T21:17:17.267Z,88.50
2018-09-07T21:19:49.382Z,89.00
2018-09-07T21:22:21.486Z,88.45
2018-09-07T21:24:53.553Z,87.72
2018-09-07T21:27:25.624Z,87.67
2018-09-07T21:29:57.658Z,87.21
2018-09-07T21:32:29.749Z,87.45
2018-09-07T21:35:01.865Z,87.81
2018-09-07T21:37:33.957Z,87.93
2018-09-07T21:40:06.105Z,88.25
2018-09-07T21:42:38.184Z,88.00
2018-09-07T21:45:10.357Z,88.51
2018-09-07T21:47:42.406Z,88.05
2018-09-07T21:50:14.495Z,88.41
2018-09-07T21:52:46.556Z,88.94
2018-09-07T21:55:18.738Z,89.40
2018-09-07T21:57:50.811Z,88.15
2018-09-07T22:00:23.037Z,88.88
2018-09-07T22:02:55.143Z,88.42
2018-09-07T22:05:27.283Z,88.12
2018-09-07T22:08:02.408Z,88.72
2018-09-07T22:10:34.617Z,88.99
2018-09-07T22:13:06.715Z,89.29
2018-09-07T22:15:38.866Z,88.96
2018-09-07T22:18:11.051Z,88.70
2018-09-07T22:20:43.160Z,88.77
2018-09-07T22:23:15.227Z,89.55
2018-09-07T22:25:47.315Z,89.64
2018-09-07T22:28:19.379Z,88.66
2018-09-07T22:30:51.888Z,88.90
2018-09-07T22:33:24.004Z,89.60
2018-09-07T22:35:56.138Z,89.38
2018-09-07T22:38:28.249Z,87.96
2018-09-07T22:41:00.380Z,88.33
2018-09-07T22:43:32.424Z,88.08
2018-09-07T22:46:04.500Z,88.29
2018-09-07T22:48:36.651Z,89.69
2018-09-07T22:51:08.688Z,90.24
2018-09-07T22:53:40.773Z,91.15
2018-09-07T22:56:12.955Z,90.90
2018-09-07T22:58:45.754Z,91.84
2018-09-07T23:01:18.837Z,92.58
2018-09-07T23:03:51.042Z,93.57
2018-09-07T23:06:28.883Z,94.64
2018-09-07T23:09:00.972Z,96.05
2018-09-07T23:11:33.105Z,96.27
2018-09-07T23:14:05.196Z,95.64
2018-09-07T23:16:37.285Z,95.46
2018-09-07T23:19:09.380Z,95.84
2018-09-07T23:21:41.493Z,95.65
2018-09-07T23:24:13.613Z,95.88
2018-09-07T23:26:45.849Z,96.35
2018-09-07T23:29:17.999Z,95.96
2018-09-07T23:31:50.104Z,96.68
2018-09-07T23:34:22.307Z,96.71
2018-09-07T23:36:54.458Z,96.69
2018-09-07T23:39:26.623Z,96.47
2018-09-07T23:41:58.788Z,97.03
2018-09-07T23:44:30.938Z,97.72
2018-09-07T23:47:03.047Z,98.28
2018-09-07T23:49:35.167Z,99.12
2018-09-07T23:52:07.339Z,100.00
2018-09-07T23:54:39.463Z,99.30
2018-09-07T23:57:11.574Z,99.32
2018-09-07T23:59:43.841Z,99.78
